createdAt,value
2023-03-28T00:01:44.872Z,100.00
2023-03-28T00:05:32.518Z,100.00
2023-03-28T00:09:20.387Z,100.00
2023-03-28T00:13:08.990Z,100.00
2023-03-28T00:16:56.547Z,100.00
2023-03-28T00:20:44.387Z,100.00
2023-03-28T00:32:36.916Z,100.00
2023-03-28T00:36:26.048Z,100.00
2023-03-28T00:40:15.118Z,100.00
2023-03-28T00:44:16.171Z,100.00
2023-03-28T00:48:05.376Z,100.00
2023-03-28T00:51:54.479Z,100.00
2023-03-28T00:59:44.684Z,100.00
2023-03-28T01:03:24.207Z,100.00
2023-03-28T01:07:15.930Z,100.00
2023-03-28T01:11:05.028Z,100.00
2023-03-28T01:14:54.193Z,100.00
2023-03-28T01:18:43.807Z,100.00
2023-03-28T01:22:34.068Z,100.00
2023-03-28T01:26:35.328Z,100.00
2023-03-28T01:42:40.137Z,100.00
2023-03-28T01:46:56.668Z,100.00
2023-03-28T02:03:07.603Z,100.00
2023-03-28T02:06:57.586Z,100.00
2023-03-28T02:10:39.461Z,100.00
2023-03-28T02:14:29.041Z,100.00
2023-03-28T02:30:39.585Z,100.00
2023-03-28T02:34:37.539Z,100.00
2023-03-28T02:38:35.541Z,100.00
2023-03-28T02:42:27.824Z,100.00
2023-03-28T02:55:06.323Z,100.00
2023-03-28T03:10:43.482Z,100.00
2023-03-28T03:14:32.213Z,100.00
2023-03-28T03:18:21.291Z,100.00
2023-03-28T03:22:10.491Z,100.00
2023-03-28T03:26:10.898Z,100.00
2023-03-28T03:29:42.547Z,100.00
2023-03-28T03:33:34.068Z,100.00
2023-03-28T03:37:24.074Z,100.00
2023-03-28T03:40:53.922Z,100.00
2023-03-28T03:45:12.280Z,100.00
2023-03-28T03:48:53.980Z,100.00
2023-03-28T03:52:43.820Z,100.00
2023-03-28T03:56:34.169Z,100.00
2023-03-28T04:00:12.066Z,100.00
2023-03-28T04:03:59.159Z,100.00
2023-03-28T04:07:52.059Z,100.00
2023-03-28T05:12:53.198Z,100.00
2023-03-28T05:16:42.613Z,100.00
2023-03-28T05:20:08.066Z,100.00
2023-03-28T05:22:54.001Z,100.00
2023-03-28T05:26:29.326Z,100.00
2023-03-28T05:29:58.268Z,100.00
2023-03-28T05:33:27.455Z,100.00
2023-03-28T05:37:04.981Z,100.00
2023-03-28T05:40:29.587Z,100.00
2023-03-28T05:43:50.848Z,100.00
2023-03-28T05:46:45.456Z,100.00
2023-03-28T05:49:46.263Z,100.00
2023-03-28T05:52:57.433Z,100.00
2023-03-28T05:56:35.781Z,100.00
2023-03-28T06:00:23.403Z,100.00
2023-03-28T06:04:11.278Z,100.00
2023-03-28T06:06:45.689Z,100.00
2023-03-28T06:09:37.823Z,100.00
2023-03-28T06:12:29.075Z,100.00
2023-03-28T06:15:58.006Z,100.00
2023-03-28T06:19:19.095Z,100.00
2023-03-28T06:22:45.486Z,100.00
2023-03-28T06:26:16.205Z,100.00
2023-03-28T06:29:30.863Z,100.00
2023-03-28T06:32:58.007Z,100.00
2023-03-28T06:36:40.975Z,100.00
2023-03-28T06:40:31.298Z,100.00
2023-03-28T06:47:50.776Z,100.00
2023-03-28T06:50:52.870Z,100.00
2023-03-28T06:53:48.090Z,100.00
2023-03-28T06:56:42.797Z,100.00
2023-03-28T06:59:48.036Z,100.00
2023-03-28T07:02:48.133Z,100.00
2023-03-28T07:06:13.883Z,100.00
2023-03-28T07:09:54.226Z,100.00
2023-03-28T07:12:53.762Z,100.00
2023-03-28T07:16:24.647Z,100.00
2023-03-28T07:19:42.654Z,100.00
2023-03-28T07:22:34.926Z,100.00
2023-03-28T07:25:45.310Z,100.00
2023-03-28T07:28:56.750Z,100.00
2023-03-28T07:32:07.535Z,100.00
2023-03-28T07:34:56.853Z,100.00
2023-03-28T07:38:01.459Z,100.00
2023-03-28T07:41:56.726Z,100.00
2023-03-28T07:45:44.802Z,100.00
2023-03-28T07:49:09.025Z,100.00
2023-03-28T07:52:49.153Z,100.00
2023-03-28T07:56:00.132Z,100.00
2023-03-28T07:59:45.655Z,100.00
2023-03-28T08:03:17.425Z,100.00
2023-03-28T08:06:48.707Z,100.00
2023-03-28T08:10:00.095Z,100.00
2023-03-28T08:13:07.195Z,100.00
2023-03-28T08:16:39.222Z,100.00
2023-03-28T08:20:31.482Z,100.00
2023-03-28T08:24:19.531Z,100.00
2023-03-28T08:28:19.423Z,100.00
2023-03-28T08:31:50.990Z,100.00
2023-03-28T08:35:14.431Z,100.00
2023-03-28T08:38:45.422Z,100.00
2023-03-28T08:50:49.621Z,100.00
2023-03-28T08:54:47.301Z,100.00
2023-03-28T08:58:19.218Z,100.00
2023-03-28T09:09:49.686Z,100.00
2023-03-28T09:14:05.646Z,100.00
2023-03-28T09:17:18.331Z,100.00
2023-03-28T09:20:11.577Z,100.00
2023-03-28T09:23:39.631Z,100.00
2023-03-28T09:27:02.403Z,100.00
2023-03-28T09:30:09.049Z,100.00
2023-03-28T09:33:42.892Z,100.00
2023-03-28T09:37:33.503Z,100.00
2023-03-28T09:41:02.670Z,100.00
2023-03-28T09:52:22.824Z,100.00
2023-03-28T10:10:31.972Z,100.00
2023-03-28T10:13:16.428Z,100.00
2023-03-28T10:16:51.523Z,100.00
2023-03-28T10:20:55.533Z,100.00
2023-03-28T10:24:26.338Z,100.00
2023-03-28T10:27:50.994Z,100.00
2023-03-28T10:47:11.273Z,100.00
2023-03-28T10:50:54.847Z,100.00
2023-03-28T10:54:41.232Z,100.00
2023-03-28T10:58:27.431Z,100.00
2023-03-28T11:01:32.658Z,100.00
2023-03-28T11:05:10.833Z,100.00
2023-03-28T11:26:31.868Z,100.00
2023-03-28T11:30:50.812Z,100.00
2023-03-28T11:34:36.398Z,100.00
2023-03-28T11:52:06.384Z,100.00
2023-03-28T11:55:31.516Z,81.13
2023-03-28T11:59:16.708Z,86.19
2023-03-28T12:03:10.342Z,86.13
2023-03-28T12:07:04.529Z,86.23
2023-03-28T12:10:48.720Z,77.37
2023-03-28T12:14:12.444Z,74.67
2023-03-28T12:18:09.299Z,77.74
2023-03-28T12:38:13.820Z,97.88
2023-03-28T12:41:09.337Z,100.00
2023-03-28T12:43:59.566Z,100.00
2023-03-28T12:47:03.253Z,100.00
2023-03-28T12:50:10.318Z,100.00
2023-03-28T12:52:51.783Z,100.00
2023-03-28T12:56:27.772Z,100.00
2023-03-28T13:00:02.480Z,99.16
2023-03-28T13:04:05.602Z,92.29
2023-03-28T13:07:13.971Z,86.82
2023-03-28T13:11:03.295Z,85.91
2023-03-28T13:14:48.275Z,87.32
2023-03-28T13:18:28.652Z,96.41
2023-03-28T13:22:26.782Z,100.00
2023-03-28T13:43:42.684Z,100.00
2023-03-28T13:47:10.425Z,100.00
2023-03-28T13:50:44.746Z,100.00
2023-03-28T13:54:21.304Z,100.00
2023-03-28T13:57:13.621Z,100.00
2023-03-28T14:00:02.462Z,97.18
2023-03-28T14:03:26.615Z,93.35
2023-03-28T14:11:23.783Z,80.73
2023-03-28T14:15:18.447Z,81.86
2023-03-28T14:18:16.509Z,70.35
2023-03-28T14:46:55.921Z,98.49
2023-03-28T14:50:45.292Z,97.60
2023-03-28T14:54:05.992Z,97.47
2023-03-28T14:57:53.831Z,96.20
2023-03-28T15:01:43.022Z,98.47
2023-03-28T15:04:58.637Z,100.00
2023-03-28T15:08:19.951Z,100.00
2023-03-28T15:12:14.251Z,100.00
2023-03-28T15:15:38.969Z,100.00
2023-03-28T15:19:21.624Z,100.00
2023-03-28T15:23:03.226Z,100.00
2023-03-28T15:26:28.158Z,100.00
2023-03-28T15:29:25.413Z,100.00
2023-03-28T15:32:20.748Z,100.00
2023-03-28T15:35:48.554Z,100.00
2023-03-28T15:39:41.992Z,100.00
2023-03-28T15:43:04.280Z,100.00
2023-03-28T15:53:51.199Z,100.00
2023-03-28T16:52:04.932Z,100.00
2023-03-28T16:58:39.436Z,100.00
2023-03-28T17:02:08.621Z,100.00
2023-03-28T17:05:30.704Z,100.00
2023-03-28T17:08:59.702Z,100.00
2023-03-28T17:12:50.013Z,100.00
2023-03-28T17:16:38.239Z,100.00
2023-03-28T17:31:49.150Z,100.00
2023-03-28T17:51:14.360Z,100.00
2023-03-28T17:55:04.216Z,100.00
2023-03-28T17:58:53.565Z,100.00
2023-03-28T18:02:43.008Z,100.00
2023-03-28T18:06:32.036Z,100.00
2023-03-28T18:10:21.060Z,100.00
2023-03-28T18:14:10.320Z,100.00
2023-03-28T18:17:52.877Z,100.00
2023-03-28T18:21:43.227Z,100.00
2023-03-28T18:25:15.863Z,100.00
2023-03-28T18:29:04.900Z,100.00
2023-03-28T18:32:55.375Z,100.00
2023-03-28T18:36:28.122Z,100.00
2023-03-28T18:39:59.971Z,100.00
2023-03-28T18:43:49.024Z,100.00
2023-03-28T18:47:13.406Z,100.00
2023-03-28T18:50:02.196Z,100.00
2023-03-28T18:52:41.865Z,100.00
2023-03-28T19:18:00.337Z,100.00
2023-03-28T19:21:51.678Z,100.00
2023-03-28T19:25:23.535Z,100.00
2023-03-28T19:28:40.953Z,100.00
2023-03-28T19:32:21.096Z,100.00
2023-03-28T19:35:53.441Z,100.00
2023-03-28T19:39:42.876Z,100.00
2023-03-28T19:43:12.311Z,100.00
2023-03-28T19:47:01.285Z,100.00
2023-03-28T19:50:51.369Z,100.00
2023-03-28T20:13:49.475Z,100.00
2023-03-28T20:17:38.800Z,100.00
2023-03-28T20:21:09.830Z,100.00
2023-03-28T20:24:34.741Z,100.00
2023-03-28T20:28:25.590Z,100.00
2023-03-28T20:31:59.937Z,100.00
2023-03-28T20:35:41.848Z,100.00
2023-03-28T20:39:31.032Z,100.00
2023-03-28T20:43:20.150Z,100.00
2023-03-28T20:47:08.590Z,100.00
2023-03-28T20:50:43.514Z,100.00
2023-03-28T20:54:12.863Z,100.00
2023-03-28T20:57:09.059Z,100.00
2023-03-28T20:59:58.653Z,100.00
2023-03-28T21:02:33.641Z,100.00
2023-03-28T21:05:03.669Z,100.00
2023-03-28T21:07:31.955Z,100.00
2023-03-28T21:11:02.040Z,100.00
2023-03-28T21:18:08.936Z,100.00
2023-03-28T21:33:36.710Z,100.00
2023-03-28T21:37:26.783Z,100.00
2023-03-28T21:41:16.006Z,100.00
2023-03-28T21:45:15.881Z,100.00
2023-03-28T21:49:05.217Z,100.00
2023-03-28T21:52:53.055Z,100.00
2023-03-28T21:56:16.984Z,100.00
2023-03-28T22:00:06.285Z,100.00
2023-03-28T22:07:50.113Z,100.00
2023-03-28T22:11:39.449Z,100.00
2023-03-28T22:19:17.630Z,100.00
2023-03-28T22:23:06.796Z,100.00
2023-03-28T22:26:48.835Z,100.00
2023-03-28T22:30:29.651Z,100.00
2023-03-28T22:34:20.118Z,100.00
2023-03-28T22:50:10.140Z,100.00
2023-03-28T22:53:57.824Z,100.00
2023-03-28T22:57:38.607Z,100.00
2023-03-28T23:01:28.443Z,100.00
2023-03-28T23:05:46.948Z,100.00
2023-03-28T23:09:36.431Z,100.00
2023-03-28T23:13:25.668Z,100.00
2023-03-28T23:17:14.691Z,100.00
2023-03-28T23:21:03.910Z,100.00
2023-03-28T23:24:53.412Z,100.00
2023-03-28T23:44:19.496Z,100.00
2023-03-28T23:48:08.469Z,100.00
2023-03-28T23:51:57.442Z,100.00
2023-03-28T23:55:46.545Z,100.00
2023-03-28T23:59:35.849Z,100.00
